Time;durP1;ratioP1;P1;durP2;ratioP2;P2;SDS_P1;SDS_P2;PMS_P1;PMS_P2;Temp;Humidity;BMP_temperature;BMP_pressure;BME280_temperature;BME280_humidity;BME280_pressure;Samples;Min_cycle;Max_cycle;Signal;HPM_P1;HPM_P2
2022/07/27 00:00:43;;;;;;;4.97;0.90;;;17.80;64.50;;;;;;4937781;28;20042;-69
2022/07/27 00:03:09;;;;;;;3.53;0.70;;;17.80;64.80;;;;;;4933251;28;20040;-70
2022/07/27 00:05:35;;;;;;;2.65;0.95;;;17.80;64.50;;;;;;4936085;28;20087;-70
2022/07/27 00:08:00;;;;;;;1.90;0.80;;;17.80;64.60;;;;;;4942732;29;20062;-70
2022/07/27 00:10:26;;;;;;;2.53;0.80;;;17.80;64.50;;;;;;4941037;28;20098;-70
2022/07/27 00:12:52;;;;;;;1.75;0.55;;;17.70;64.40;;;;;;4936499;29;20038;-70
2022/07/27 00:15:18;;;;;;;4.00;0.63;;;17.70;64.50;;;;;;4938194;29;20707;-70
2022/07/27 00:17:43;;;;;;;5.28;1.10;;;17.60;64.00;;;;;;4938794;28;20038;-70
2022/07/27 00:20:09;;;;;;;4.70;1.00;;;17.60;64.60;;;;;;4935466;28;20035;-70
2022/07/27 00:22:35;;;;;;;2.10;0.65;;;17.50;64.90;;;;;;4937037;28;20027;-70
2022/07/27 00:25:01;;;;;;;3.63;0.90;;;17.40;64.90;;;;;;4936597;28;20024;-70
2022/07/27 00:27:27;;;;;;;12.00;1.00;;;17.30;65.10;;;;;;4942182;28;20062;-70
2022/07/27 00:29:53;;;;;;;4.22;0.95;;;17.20;65.60;;;;;;4943064;28;20030;-70
2022/07/27 00:32:18;;;;;;;5.47;0.75;;;17.10;66.00;;;;;;4940308;28;20146;-70
2022/07/27 00:34:44;;;;;;;2.25;0.60;;;17.10;66.20;;;;;;4939943;28;20479;-70
2022/07/27 00:37:10;;;;;;;3.67;0.68;;;17.00;66.60;;;;;;4936526;28;20067;-70
2022/07/27 00:39:35;;;;;;;5.32;1.10;;;16.90;67.00;;;;;;4937694;28;20038;-69
2022/07/27 00:42:01;;;;;;;2.38;0.60;;;16.80;67.00;;;;;;4933471;29;20099;-70
2022/07/27 00:44:29;;;;;;;2.72;0.88;;;16.70;67.40;;;;;;4939078;29;20097;-70
2022/07/27 00:46:56;;;;;;;4.00;0.63;;;16.60;67.70;;;;;;4942460;28;20042;-70
2022/07/27 00:49:22;;;;;;;2.90;0.70;;;16.60;67.90;;;;;;4941174;29;20406;-69
2022/07/27 00:51:49;;;;;;;2.50;0.82;;;16.50;68.30;;;;;;4942116;28;20039;-70
2022/07/27 00:54:18;;;;;;;4.57;0.80;;;16.40;68.70;;;;;;4939508;29;20683;-70
2022/07/27 00:56:44;;;;;;;1.33;0.57;;;16.40;69.10;;;;;;4940828;29;20083;-70
2022/07/27 00:59:11;;;;;;;5.25;0.85;;;16.30;69.30;;;;;;4940466;29;20066;-70
2022/07/27 01:01:38;;;;;;;3.20;0.77;;;16.20;69.40;;;;;;4939859;29;20711;-70
2022/07/27 01:04:04;;;;;;;4.63;1.02;;;16.10;69.80;;;;;;4940232;29;20114;-70
2022/07/27 01:06:31;;;;;;;2.97;1.00;;;16.10;70.30;;;;;;4942798;29;20039;-70
2022/07/27 01:11:43;;;;;;;1.73;0.73;;;16.00;70.80;;;;;;4939043;28;20035;-70
2022/07/27 01:14:12;;;;;;;2.72;1.00;;;15.90;70.80;;;;;;4937104;28;20045;-69
2022/07/27 01:16:38;;;;;;;5.20;0.90;;;15.90;70.90;;;;;;4941351;28;20037;-70
2022/07/27 01:19:04;;;;;;;5.78;0.82;;;15.80;71.10;;;;;;4941182;28;20054;-69
2022/07/27 01:21:33;;;;;;;4.65;0.88;;;15.80;71.20;;;;;;4939378;28;20031;-70
2022/07/27 01:23:59;;;;;;;3.20;1.00;;;15.70;71.20;;;;;;4946133;29;20066;-70
2022/07/27 01:26:25;;;;;;;4.82;1.17;;;15.60;71.60;;;;;;4959563;28;20023;-69
2022/07/27 01:28:56;;;;;;;3.50;0.77;;;15.60;71.80;;;;;;4941986;29;20035;-70
2022/07/27 01:31:22;;;;;;;3.97;0.90;;;15.60;71.90;;;;;;4943820;28;20591;-70
2022/07/27 01:33:48;;;;;;;3.00;0.73;;;15.50;72.10;;;;;;4940368;28;20039;-69
2022/07/27 01:36:14;;;;;;;3.47;0.90;;;15.50;72.30;;;;;;4938065;29;20063;-70
2022/07/27 01:38:40;;;;;;;3.90;0.80;;;15.50;72.50;;;;;;4937894;29;20031;-70
2022/07/27 01:41:06;;;;;;;5.00;1.00;;;15.50;72.60;;;;;;4938431;29;20065;-70
2022/07/27 01:43:32;;;;;;;6.93;1.08;;;15.40;72.60;;;;;;4943616;28;20499;-70
2022/07/27 01:45:58;;;;;;;4.47;1.05;;;15.40;72.70;;;;;;4943014;28;20122;-70
2022/07/27 01:48:25;;;;;;;2.58;0.93;;;15.40;73.00;;;;;;4940887;29;20350;-70
2022/07/27 01:50:51;;;;;;;2.63;0.75;;;15.30;73.30;;;;;;4940612;28;20579;-69
2022/07/27 01:53:19;;;;;;;3.42;0.82;;;15.30;74.00;;;;;;4936463;29;20039;-70
2022/07/27 01:55:45;;;;;;;5.13;1.23;;;15.30;73.50;;;;;;4938490;28;20027;-70
2022/07/27 01:58:11;;;;;;;2.15;0.60;;;15.30;73.70;;;;;;4935153;29;20040;-70
2022/07/27 02:00:37;;;;;;;3.10;0.90;;;15.20;73.80;;;;;;4940744;28;20038;-70
2022/07/27 02:03:05;;;;;;;5.07;1.10;;;15.20;74.10;;;;;;4942291;28;20042;-70
2022/07/27 02:05:30;;;;;;;2.72;0.73;;;15.20;74.10;;;;;;4942332;28;20027;-70
2022/07/27 02:07:56;;;;;;;3.50;0.88;;;15.10;74.30;;;;;;4942985;29;20044;-70
2022/07/27 02:10:22;;;;;;;4.55;0.93;;;15.10;74.50;;;;;;4939070;28;20557;-70
2022/07/27 02:12:49;;;;;;;3.08;0.60;;;15.10;74.80;;;;;;4938973;28;20043;-70
2022/07/27 02:15:18;;;;;;;2.13;0.45;;;15.00;75.10;;;;;;4937077;29;20086;-70
2022/07/27 02:17:44;;;;;;;3.15;0.80;;;15.10;75.40;;;;;;4937989;28;20036;-70
2022/07/27 02:20:11;;;;;;;1.55;0.60;;;15.10;75.50;;;;;;4943835;28;20034;-70
2022/07/27 02:22:37;;;;;;;5.65;0.98;;;15.10;75.40;;;;;;4943307;29;20535;-70
2022/07/27 02:25:05;;;;;;;3.75;0.82;;;15.10;75.50;;;;;;4941665;28;20114;-70
2022/07/27 02:27:31;;;;;;;2.10;0.90;;;15.10;75.80;;;;;;4941177;28;20082;-70
2022/07/27 02:29:57;;;;;;;1.55;0.95;;;15.10;76.00;;;;;;4940251;28;20046;-70
2022/07/27 02:32:22;;;;;;;2.88;0.70;;;15.10;76.00;;;;;;4900219;28;1138638;-69
2022/07/27 02:34:49;;;;;;;2.92;0.90;;;15.10;76.00;;;;;;4938431;28;20700;-70
2022/07/27 02:37:15;;;;;;;2.50;0.88;;;15.10;76.10;;;;;;4940333;29;20074;-70
2022/07/27 02:39:40;;;;;;;2.75;0.82;;;15.10;76.30;;;;;;4945018;28;20066;-70
2022/07/27 02:42:06;;;;;;;5.28;1.23;;;15.10;76.40;;;;;;4943502;28;20035;-70
2022/07/27 02:44:32;;;;;;;3.40;1.10;;;15.00;76.50;;;;;;4942702;28;20820;-70
2022/07/27 02:46:58;;;;;;;2.28;1.13;;;15.00;76.70;;;;;;4940925;28;20126;-69
2022/07/27 02:49:23;;;;;;;2.25;0.82;;;15.00;76.80;;;;;;4943800;29;20032;-70
2022/07/27 02:51:50;;;;;;;0.73;0.50;;;15.00;76.90;;;;;;4938657;28;20160;-70
2022/07/27 02:54:24;;;;;;;1.73;0.82;;;15.00;77.10;;;;;;4936902;29;20024;-69
2022/07/27 02:56:51;;;;;;;4.57;1.10;;;15.00;77.10;;;;;;4942235;28;20031;-70
2022/07/27 02:59:18;;;;;;;4.32;0.85;;;15.00;77.30;;;;;;4943507;28;20043;-70
2022/07/27 03:01:45;;;;;;;3.25;0.77;;;15.00;77.40;;;;;;4942927;28;20031;-70
2022/07/27 03:04:11;;;;;;;4.13;0.90;;;15.00;77.50;;;;;;4940887;28;20035;-70
2022/07/27 03:06:36;;;;;;;3.35;0.80;;;14.90;77.70;;;;;;4941415;28;20031;-67
2022/07/27 03:09:03;;;;;;;2.78;0.57;;;14.90;77.60;;;;;;4944039;29;20415;-67
2022/07/27 03:11:29;;;;;;;1.55;0.68;;;14.90;77.50;;;;;;4940698;29;20024;-67
2022/07/27 03:13:55;;;;;;;2.50;0.93;;;15.00;77.60;;;;;;4937996;28;20023;-67
2022/07/27 03:16:20;;;;;;;2.65;0.80;;;15.00;77.60;;;;;;4943794;29;20479;-67
2022/07/27 03:18:46;;;;;;;2.45;0.93;;;15.00;77.70;;;;;;4943733;29;20039;-67
2022/07/27 03:21:12;;;;;;;2.33;0.70;;;15.00;77.60;;;;;;4940148;28;20047;-67
2022/07/27 03:23:38;;;;;;;1.95;0.75;;;15.10;77.70;;;;;;4940746;29;20027;-67
2022/07/27 03:26:04;;;;;;;4.80;0.98;;;15.10;77.60;;;;;;4938109;28;20042;-67
2022/07/27 03:28:30;;;;;;;3.78;0.88;;;15.10;77.60;;;;;;4938365;29;20774;-66
2022/07/27 03:30:57;;;;;;;4.93;0.93;;;15.10;77.40;;;;;;4938208;28;20121;-67
2022/07/27 03:33:23;;;;;;;1.48;0.63;;;15.10;77.40;;;;;;4935329;29;20043;-67
2022/07/27 03:35:48;;;;;;;2.33;0.70;;;15.20;77.60;;;;;;4943528;28;20031;-67
2022/07/27 03:38:14;;;;;;;3.00;0.60;;;15.20;77.70;;;;;;4941413;28;20035;-67
2022/07/27 03:40:40;;;;;;;3.60;1.08;;;15.20;77.50;;;;;;4942257;28;20773;-67
2022/07/27 03:43:06;;;;;;;5.40;1.02;;;15.20;77.50;;;;;;4938931;28;20035;-67
2022/07/27 03:45:32;;;;;;;2.28;1.00;;;15.20;77.60;;;;;;4939978;28;20031;-67
2022/07/27 03:47:59;;;;;;;4.85;0.90;;;15.30;77.50;;;;;;4935787;29;20039;-67
2022/07/27 03:50:25;;;;;;;4.53;0.80;;;15.30;77.40;;;;;;4936334;29;20411;-67
2022/07/27 03:52:50;;;;;;;3.53;1.23;;;15.30;77.40;;;;;;4935948;29;20035;-66
2022/07/27 03:55:17;;;;;;;3.88;0.77;;;15.20;77.40;;;;;;4942304;28;20050;-67
2022/07/27 03:57:43;;;;;;;2.63;0.80;;;15.20;77.50;;;;;;4941718;28;20680;-67
2022/07/27 04:00:13;;;;;;;3.85;1.00;;;15.20;77.60;;;;;;4938001;28;20039;-67
2022/07/27 04:02:39;;;;;;;3.85;0.85;;;15.10;77.70;;;;;;4939165;28;20027;-67
2022/07/27 04:05:05;;;;;;;1.70;1.20;;;15.10;78.00;;;;;;4936330;28;20067;-67
2022/07/27 04:07:31;;;;;;;2.50;0.90;;;15.00;78.10;;;;;;4938125;29;20772;-67
2022/07/27 04:09:57;;;;;;;2.58;1.05;;;15.00;79.00;;;;;;4934214;28;20042;-67
2022/07/27 04:12:23;;;;;;;3.65;0.70;;;15.00;78.20;;;;;;4938271;29;20039;-67
2022/07/27 04:14:48;;;;;;;2.40;0.82;;;15.00;78.40;;;;;;4942953;28;20042;-67
2022/07/27 04:17:14;;;;;;;3.03;0.95;;;15.00;78.40;;;;;;4940616;29;20118;-67
2022/07/27 04:19:40;;;;;;;4.97;1.00;;;15.00;78.20;;;;;;4940735;28;20039;-67
2022/07/27 04:22:06;;;;;;;2.55;0.88;;;15.00;78.40;;;;;;4936841;28;20027;-67
2022/07/27 04:24:32;;;;;;;2.05;0.70;;;15.00;78.60;;;;;;4939069;28;20045;-67
2022/07/27 04:26:58;;;;;;;2.97;0.82;;;15.00;78.60;;;;;;4935145;28;20039;-67
2022/07/27 04:29:23;;;;;;;3.63;0.90;;;15.00;78.60;;;;;;4935728;29;20039;-67
2022/07/27 04:31:49;;;;;;;5.35;0.90;;;15.00;78.80;;;;;;4942657;28;20082;-67
2022/07/27 04:34:15;;;;;;;3.13;0.90;;;15.00;78.90;;;;;;4941883;29;20043;-67
2022/07/27 04:36:41;;;;;;;2.25;0.73;;;15.00;78.80;;;;;;4941499;29;20074;-67
2022/07/27 04:39:07;;;;;;;4.22;1.00;;;15.10;78.80;;;;;;4938544;29;20122;-67
2022/07/27 04:41:32;;;;;;;3.10;0.90;;;15.10;79.00;;;;;;4939016;28;20027;-67
2022/07/27 04:43:59;;;;;;;1.45;0.70;;;15.20;79.20;;;;;;4936455;28;20106;-67
2022/07/27 04:46:26;;;;;;;3.60;1.10;;;15.30;79.20;;;;;;4936670;29;20042;-67
2022/07/27 04:48:52;;;;;;;1.92;0.82;;;15.40;78.80;;;;;;4940029;28;20039;-67
2022/07/27 04:51:18;;;;;;;2.85;0.90;;;15.40;78.60;;;;;;4942332;28;20038;-67
2022/07/27 04:53:43;;;;;;;4.50;0.80;;;15.40;78.50;;;;;;4941630;28;20399;-67
2022/07/27 04:56:09;;;;;;;5.47;0.82;;;15.50;78.20;;;;;;4939752;29;20051;-67
2022/07/27 04:58:36;;;;;;;2.35;1.02;;;15.50;78.20;;;;;;4939794;28;20179;-67
2022/07/27 05:01:02;;;;;;;4.85;1.48;;;15.50;78.10;;;;;;4936877;28;20115;-67
2022/07/27 05:03:28;;;;;;;2.80;1.13;;;15.50;77.80;;;;;;4936472;29;20036;-68
2022/07/27 05:05:54;;;;;;;5.88;1.05;;;15.50;77.30;;;;;;4934150;29;20034;-67
2022/07/27 05:08:20;;;;;;;4.82;1.00;;;15.60;77.20;;;;;;4937676;29;20706;-67
2022/07/27 05:10:46;;;;;;;4.13;0.98;;;15.60;76.60;;;;;;4942449;28;20522;-67
2022/07/27 05:13:12;;;;;;;2.47;0.60;;;15.70;76.40;;;;;;4940378;29;20039;-67
2022/07/27 05:15:38;;;;;;;4.00;0.93;;;15.70;76.90;;;;;;4939815;29;20554;-66
2022/07/27 05:18:04;;;;;;;2.88;0.75;;;15.70;77.00;;;;;;4937180;29;20595;-67
2022/07/27 05:20:30;;;;;;;1.52;0.80;;;15.70;77.00;;;;;;4937663;29;20118;-67
2022/07/27 05:22:56;;;;;;;4.97;1.23;;;15.70;77.20;;;;;;4940332;28;20122;-67
2022/07/27 05:25:24;;;;;;;4.13;0.82;;;15.70;77.20;;;;;;4937987;29;20560;-67
2022/07/27 05:27:53;;;;;;;6.28;0.93;;;15.80;77.10;;;;;;4941518;28;20019;-67
2022/07/27 05:30:20;;;;;;;5.47;1.17;;;15.80;77.40;;;;;;4944498;28;20499;-67
2022/07/27 05:32:46;;;;;;;3.95;1.15;;;15.80;77.70;;;;;;4942045;28;20385;-67
2022/07/27 05:35:12;;;;;;;2.25;0.70;;;15.80;77.60;;;;;;4940310;29;20087;-67
2022/07/27 05:37:38;;;;;;;2.50;0.75;;;15.90;77.90;;;;;;4939033;28;20038;-67
2022/07/27 05:40:06;;;;;;;7.88;0.68;;;15.90;77.90;;;;;;4935668;29;20047;-67
2022/07/27 05:42:32;;;;;;;2.75;0.90;;;16.00;78.00;;;;;;4936857;29;20035;-67
2022/07/27 05:44:58;;;;;;;5.93;1.10;;;16.10;77.90;;;;;;4937351;28;20476;-67
2022/07/27 05:47:23;;;;;;;6.30;1.15;;;16.20;77.50;;;;;;4941939;29;20440;-67
2022/07/27 05:49:49;;;;;;;3.10;0.68;;;16.30;77.20;;;;;;4941945;28;20035;-67
2022/07/27 05:52:15;;;;;;;6.55;1.10;;;16.30;77.20;;;;;;4938439;28;20087;-68
2022/07/27 05:54:42;;;;;;;6.82;0.90;;;16.40;77.10;;;;;;4940104;28;20137;-67
2022/07/27 05:57:08;;;;;;;1.45;0.88;;;16.50;77.00;;;;;;4936405;28;20135;-67
2022/07/27 05:59:35;;;;;;;5.80;1.23;;;16.50;76.80;;;;;;4937717;29;20291;-67
2022/07/27 06:02:02;;;;;;;6.05;1.27;;;16.60;76.30;;;;;;4934935;28;20515;-67
2022/07/27 06:04:28;;;;;;;6.80;0.98;;;16.70;76.10;;;;;;4938422;29;20111;-67
2022/07/27 06:09:39;;;;;;;4.95;0.82;;;17.00;75.00;;;;;;4942001;29;20035;-67
2022/07/27 06:12:05;;;;;;;3.33;0.70;;;17.10;75.00;;;;;;4941250;28;20747;-67
2022/07/27 06:14:31;;;;;;;2.95;0.77;;;17.30;74.30;;;;;;4939737;29;20034;-67
2022/07/27 06:16:57;;;;;;;2.33;0.63;;;17.40;73.80;;;;;;4939468;28;20838;-67
2022/07/27 06:19:23;;;;;;;3.97;0.90;;;17.60;72.90;;;;;;4938832;29;20047;-67
2022/07/27 06:21:50;;;;;;;9.02;1.17;;;17.70;72.80;;;;;;4937129;28;20046;-67
2022/07/27 06:24:16;;;;;;;5.70;1.05;;;17.80;71.60;;;;;;4940234;29;20051;-67
2022/07/27 06:26:43;;;;;;;6.25;1.25;;;17.80;71.60;;;;;;4944654;28;20825;-67
2022/07/27 06:29:08;;;;;;;4.65;0.90;;;17.90;70.60;;;;;;4942716;28;20038;-67
2022/07/27 06:31:34;;;;;;;6.32;0.80;;;18.00;70.00;;;;;;4943930;28;20082;-67
2022/07/27 06:34:00;;;;;;;5.53;0.98;;;18.10;69.80;;;;;;4940419;28;20039;-67
2022/07/27 06:36:26;;;;;;;7.88;0.98;;;18.20;69.20;;;;;;4940439;29;20039;-67
2022/07/27 06:38:52;;;;;;;2.55;0.57;;;18.30;69.20;;;;;;4937151;29;20034;-66
2022/07/27 06:41:18;;;;;;;3.33;1.30;;;18.30;68.00;;;;;;4936782;29;20456;-67
2022/07/27 06:43:44;;;;;;;3.00;1.10;;;18.50;68.00;;;;;;4945492;28;20034;-67
2022/07/27 06:46:13;;;;;;;3.63;1.20;;;18.50;67.50;;;;;;4943387;29;20031;-67
2022/07/27 06:48:39;;;;;;;5.00;1.00;;;18.70;67.00;;;;;;4943845;28;20114;-67
2022/07/27 06:51:05;;;;;;;5.82;1.23;;;18.70;67.50;;;;;;4940728;28;20049;-67
2022/07/27 06:53:31;;;;;;;4.47;0.95;;;18.80;66.70;;;;;;4940834;29;20486;-67
2022/07/27 06:56:02;;;;;;;6.90;1.10;;;18.90;66.30;;;;;;4942441;29;20118;-67
2022/07/27 06:58:30;;;;;;;4.07;1.10;;;19.00;65.90;;;;;;4938796;29;20063;-67
2022/07/27 07:00:57;;;;;;;5.75;0.80;;;19.10;65.50;;;;;;4938007;28;20027;-67
2022/07/27 07:03:23;;;;;;;5.18;1.23;;;19.10;65.40;;;;;;4943542;28;20082;-66
2022/07/27 07:05:49;;;;;;;3.70;1.02;;;19.20;64.90;;;;;;4943344;28;20532;-67
2022/07/27 07:08:15;;;;;;;6.30;0.80;;;19.30;63.90;;;;;;4940606;29;20038;-67
2022/07/27 07:10:44;;;;;;;3.15;0.90;;;19.30;63.40;;;;;;4941098;28;20031;-67
2022/07/27 07:13:10;;;;;;;4.13;1.15;;;19.40;62.80;;;;;;4935743;28;20789;-67
2022/07/27 07:15:38;;;;;;;3.58;0.80;;;19.50;62.80;;;;;;4938728;29;20094;-67
2022/07/27 07:18:05;;;;;;;4.68;1.17;;;19.60;63.00;;;;;;4934216;28;20035;-67
2022/07/27 07:20:31;;;;;;;4.53;1.25;;;19.80;62.50;;;;;;4955212;28;20387;-67
2022/07/27 07:22:58;;;;;;;3.20;0.85;;;19.80;61.30;;;;;;4938495;29;20035;-67
2022/07/27 07:25:24;;;;;;;5.72;0.90;;;19.90;61.00;;;;;;4941496;29;20445;-67
2022/07/27 07:27:50;;;;;;;2.47;0.80;;;20.00;60.00;;;;;;4939866;29;20031;-67
2022/07/27 07:30:16;;;;;;;2.35;0.88;;;20.00;59.60;;;;;;4940715;28;20035;-67
2022/07/27 07:32:42;;;;;;;6.53;1.20;;;20.10;59.80;;;;;;4937742;29;20046;-67
2022/07/27 07:35:08;;;;;;;2.03;0.85;;;20.10;58.80;;;;;;4935708;28;20036;-67
2022/07/27 07:37:34;;;;;;;5.63;0.95;;;20.20;58.80;;;;;;4938322;28;20202;-67
2022/07/27 07:40:00;;;;;;;3.25;0.63;;;20.20;59.10;;;;;;4941150;28;20514;-67
2022/07/27 07:42:26;;;;;;;5.10;1.02;;;20.30;59.00;;;;;;4944588;28;20087;-67
2022/07/27 07:44:52;;;;;;;5.30;1.10;;;20.40;59.00;;;;;;4944952;28;20031;-67
2022/07/27 07:47:17;;;;;;;4.18;0.80;;;20.40;58.40;;;;;;4942406;29;20023;-67
2022/07/27 07:49:43;;;;;;;6.75;0.95;;;20.50;58.50;;;;;;4941786;28;20035;-67
2022/07/27 07:52:09;;;;;;;3.05;0.65;;;20.50;58.60;;;;;;4936077;28;20145;-67
2022/07/27 07:54:35;;;;;;;3.55;0.93;;;20.40;59.10;;;;;;4938131;29;20046;-67
2022/07/27 07:57:01;;;;;;;4.38;0.68;;;20.40;58.70;;;;;;4933578;29;20114;-67
2022/07/27 07:59:27;;;;;;;7.85;1.10;;;20.40;59.30;;;;;;4944817;28;20137;-67
2022/07/27 08:01:52;;;;;;;1.63;0.70;;;20.40;59.00;;;;;;4942378;28;20126;-67
2022/07/27 08:04:18;;;;;;;4.45;0.90;;;20.50;58.60;;;;;;4940356;29;20039;-67
2022/07/27 08:06:44;;;;;;;1.70;0.70;;;20.60;59.10;;;;;;4940758;29;20019;-67
2022/07/27 08:09:12;;;;;;;4.70;0.82;;;20.60;58.00;;;;;;4937052;28;20079;-67
2022/07/27 08:11:38;;;;;;;4.45;0.70;;;20.60;57.10;;;;;;4938136;28;20142;-67
2022/07/27 08:14:04;;;;;;;3.28;0.93;;;20.60;57.50;;;;;;4933743;28;20058;-67
2022/07/27 08:16:29;;;;;;;2.72;0.80;;;20.60;57.80;;;;;;4936349;29;20031;-68
2022/07/27 08:18:55;;;;;;;2.38;0.73;;;20.70;57.20;;;;;;4943272;28;20735;-67
2022/07/27 08:21:21;;;;;;;2.58;0.60;;;20.80;57.20;;;;;;4941291;28;20055;-68
2022/07/27 08:23:47;;;;;;;5.78;1.00;;;20.90;56.70;;;;;;4940602;28;20452;-67
2022/07/27 08:26:12;;;;;;;2.08;0.73;;;21.00;56.50;;;;;;4937746;28;20098;-67
2022/07/27 08:28:38;;;;;;;2.40;0.52;;;21.10;56.30;;;;;;4938989;28;20027;-67
2022/07/27 08:31:04;;;;;;;1.60;0.63;;;21.20;55.30;;;;;;4938256;28;20039;-67
2022/07/27 08:33:29;;;;;;;3.15;0.80;;;21.20;55.40;;;;;;4936588;29;20101;-67
2022/07/27 08:35:56;;;;;;;2.15;0.40;;;21.20;55.40;;;;;;4936133;28;20054;-67
2022/07/27 08:38:22;;;;;;;3.65;0.60;;;21.20;54.50;;;;;;4948379;28;20035;-67
2022/07/27 08:40:49;;;;;;;4.63;0.70;;;21.20;54.50;;;;;;4944796;28;20066;-68
2022/07/27 08:43:16;;;;;;;3.40;0.55;;;21.30;54.20;;;;;;4944540;28;20075;-67
2022/07/27 08:45:44;;;;;;;8.48;0.90;;;21.40;54.50;;;;;;4942232;28;20062;-67
2022/07/27 08:48:13;;;;;;;2.95;1.00;;;21.40;53.40;;;;;;4938367;29;20731;-67
2022/07/27 08:50:40;;;;;;;3.33;0.73;;;21.40;54.10;;;;;;4933693;29;20035;-67
2022/07/27 08:53:09;;;;;;;2.97;0.73;;;21.30;54.20;;;;;;4932760;29;20689;-67
2022/07/27 08:55:37;;;;;;;2.80;0.70;;;21.20;54.90;;;;;;4942081;29;20074;-67
2022/07/27 08:58:04;;;;;;;3.25;1.00;;;21.20;54.70;;;;;;4940189;28;20523;-68
2022/07/27 09:00:31;;;;;;;2.72;0.60;;;21.20;55.00;;;;;;4941131;28;20081;-67
2022/07/27 09:02:57;;;;;;;3.40;0.70;;;21.20;54.10;;;;;;4938762;28;20038;-67
2022/07/27 09:05:23;;;;;;;4.00;0.95;;;21.30;54.40;;;;;;4937762;29;20036;-67
2022/07/27 09:07:49;;;;;;;1.23;0.57;;;21.30;54.50;;;;;;4937257;29;20122;-67
2022/07/27 09:10:33;;;;;;;3.70;0.70;;;21.40;54.60;;;;;;4934588;29;20032;-67
2022/07/27 09:13:33;;;;;;;2.08;0.50;;;21.50;54.00;;;;;;4935704;29;20063;-67
2022/07/27 09:16:05;;;;;;;4.75;0.80;;;21.50;53.50;;;;;;4939036;29;20086;-67
2022/07/27 09:18:36;;;;;;;3.35;0.70;;;21.60;52.70;;;;;;4941094;29;20067;-67
2022/07/27 09:21:22;;;;;;;5.57;0.65;;;21.50;52.40;;;;;;4939167;28;20077;-67
2022/07/27 09:23:58;;;;;;;1.98;0.50;;;21.40;52.70;;;;;;4936781;29;20837;-67
2022/07/27 09:26:25;;;;;;;;;;;21.40;52.90;;;;;;4937540;29;20063;-68
2022/07/27 09:29:16;;;;;;;3.00;0.70;;;21.40;53.50;;;;;;4934919;28;19922;-67
2022/07/27 09:31:46;;;;;;;2.80;0.65;;;21.40;53.20;;;;;;4935429;28;20049;-68
2022/07/27 09:34:24;;;;;;;2.83;0.75;;;21.40;53.70;;;;;;4941520;29;20159;-67
2022/07/27 09:36:52;;;;;;;3.03;0.77;;;21.60;53.60;;;;;;4943597;28;20404;-69
2022/07/27 09:39:21;;;;;;;4.93;0.70;;;21.70;53.20;;;;;;4942011;28;20039;-67
2022/07/27 09:41:53;;;;;;;3.17;0.98;;;21.90;52.80;;;;;;4940840;29;20032;-67
2022/07/27 09:44:39;;;;;;;1.45;0.60;;;21.90;52.00;;;;;;4940091;29;20030;-67
2022/07/27 09:47:29;;;;;;;4.70;0.70;;;22.00;52.10;;;;;;4936962;28;20027;-67
2022/07/27 09:50:19;;;;;;;3.05;0.70;;;21.90;51.60;;;;;;4939017;29;20054;-67
2022/07/27 09:52:46;;;;;;;2.13;0.57;;;21.70;52.10;;;;;;4945349;29;20102;-67
2022/07/27 09:55:11;;;;;;;3.67;0.73;;;21.70;52.60;;;;;;4943585;28;20039;-67
2022/07/27 09:57:57;;;;;;;3.28;0.85;;;21.60;53.40;;;;;;4945268;28;20216;-67
2022/07/27 10:00:24;;;;;;;0.95;0.47;;;21.50;53.00;;;;;;4944357;29;20593;-67
2022/07/27 10:02:52;;;;;;;3.22;0.80;;;21.50;52.30;;;;;;4942898;28;20106;-67
2022/07/27 10:05:20;;;;;;;2.83;0.57;;;21.50;52.10;;;;;;4940489;29;20028;-67
2022/07/27 10:07:47;;;;;;;1.33;0.57;;;21.50;53.00;;;;;;4937894;28;20818;-68
2022/07/27 10:10:14;;;;;;;2.20;0.77;;;21.50;52.40;;;;;;4939956;28;20031;-68
2022/07/27 10:12:43;;;;;;;2.20;0.75;;;21.50;52.60;;;;;;4944560;29;20517;-68
2022/07/27 10:15:10;;;;;;;3.00;0.60;;;21.50;53.10;;;;;;4942653;28;20043;-68
2022/07/27 10:17:37;;;;;;;2.83;0.73;;;21.60;52.80;;;;;;4942488;28;20031;-67
2022/07/27 10:20:09;;;;;;;3.30;0.40;;;21.80;52.80;;;;;;4939907;29;20039;-68
2022/07/27 10:22:57;;;;;;;2.95;0.80;;;22.00;53.00;;;;;;4940299;29;20031;-68
2022/07/27 10:25:24;;;;;;;1.27;0.65;;;22.10;51.60;;;;;;4938132;29;20027;-68
2022/07/27 10:28:11;;;;;;;4.18;0.70;;;22.20;51.50;;;;;;4936478;28;20027;-67
2022/07/27 10:30:38;;;;;;;2.20;0.75;;;22.20;51.90;;;;;;4942569;28;20039;-67
2022/07/27 10:33:15;;;;;;;1.65;0.70;;;22.40;51.00;;;;;;4943023;28;20046;-67
2022/07/27 10:35:41;;;;;;;2.28;0.47;;;22.50;50.70;;;;;;4938334;29;20062;-67
2022/07/27 10:38:15;;;;;;;1.48;0.30;;;22.60;50.20;;;;;;4939643;28;20118;-67
2022/07/27 10:40:42;;;;;;;3.17;0.60;;;22.50;49.30;;;;;;4940539;28;20031;-68
2022/07/27 10:43:18;;;;;;;2.28;0.68;;;22.60;49.80;;;;;;4936194;29;20064;-67
2022/07/27 10:45:47;;;;;;;2.20;0.65;;;22.80;49.70;;;;;;4937659;29;20031;-67
2022/07/27 10:48:39;;;;;;;3.50;0.60;;;22.90;48.70;;;;;;4938621;28;20039;-67
2022/07/27 10:51:09;;;;;;;2.47;0.43;;;22.90;49.10;;;;;;4940489;28;20039;-68
2022/07/27 10:53:40;;;;;;;2.72;0.75;;;22.90;48.80;;;;;;4942692;29;20892;-67
2022/07/27 10:56:07;;;;;;;2.47;0.52;;;22.90;48.00;;;;;;4939531;28;20126;-67
2022/07/27 10:58:32;;;;;;;1.63;0.70;;;22.90;46.90;;;;;;4940081;28;20098;-67
2022/07/27 11:01:04;;;;;;;3.20;1.02;;;22.90;48.10;;;;;;4937063;29;20559;-67
2022/07/27 11:03:38;;;;;;;4.05;0.70;;;22.90;47.50;;;;;;4937520;29;20492;-67
2022/07/27 11:06:11;;;;;;;3.50;0.93;;;22.90;48.00;;;;;;4933189;29;20042;-67
2022/07/27 11:08:40;;;;;;;2.88;0.80;;;22.90;47.90;;;;;;4939986;28;20138;-67
2022/07/27 11:11:08;;;;;;;2.38;1.05;;;22.90;48.20;;;;;;4941542;28;20035;-67
2022/07/27 11:13:35;;;;;;;3.83;0.90;;;23.00;48.00;;;;;;4941162;28;20035;-67
2022/07/27 11:16:06;;;;;;;2.58;0.60;;;23.00;48.30;;;;;;4939110;28;20134;-67
2022/07/27 11:18:37;;;;;;;1.45;0.60;;;23.00;48.50;;;;;;4939520;28;20035;-67
2022/07/27 11:21:18;;;;;;;3.75;1.00;;;23.10;48.30;;;;;;4935654;28;20035;-67
2022/07/27 11:23:47;;;;;;;4.25;0.60;;;23.20;48.30;;;;;;4936520;29;20039;-67
2022/07/27 11:26:13;;;;;;;3.03;1.02;;;23.20;48.20;;;;;;4941074;29;20915;-67
2022/07/27 11:28:40;;;;;;;4.10;0.70;;;23.20;48.10;;;;;;4942873;28;20512;-67
2022/07/27 11:31:07;;;;;;;4.18;0.80;;;23.10;47.70;;;;;;4941644;28;20841;-68
2022/07/27 11:33:34;;;;;;;3.70;1.05;;;23.00;48.20;;;;;;4940246;29;20046;-68
2022/07/27 11:36:03;;;;;;;0.98;0.57;;;23.00;47.80;;;;;;4938034;28;20046;-67
2022/07/27 11:38:29;;;;;;;6.50;0.93;;;22.90;48.10;;;;;;4940850;29;20081;-68
2022/07/27 11:40:55;;;;;;;1.35;0.50;;;22.90;49.20;;;;;;4939067;28;20591;-67
2022/07/27 11:43:36;;;;;;;3.35;0.95;;;22.90;48.30;;;;;;4935085;29;20122;-67
2022/07/27 11:46:21;;;;;;;2.45;0.65;;;23.00;48.20;;;;;;4939298;29;20035;-67
2022/07/27 11:48:48;;;;;;;3.80;0.85;;;23.10;47.80;;;;;;4937913;29;20114;-68
2022/07/27 11:51:16;;;;;;;2.10;0.90;;;23.10;47.40;;;;;;4939095;28;20845;-68
2022/07/27 11:53:42;;;;;;;5.10;1.02;;;23.20;46.30;;;;;;4939807;28;20039;-67
2022/07/27 11:56:08;;;;;;;4.53;0.70;;;23.30;46.50;;;;;;4936137;29;20031;-67
2022/07/27 11:58:58;;;;;;;3.20;0.63;;;23.40;47.00;;;;;;4937752;28;20053;-68
2022/07/27 12:01:29;;;;;;;2.45;0.90;;;23.50;45.40;;;;;;4934949;29;20094;-67
2022/07/27 12:04:09;;;;;;;1.42;0.65;;;23.60;45.40;;;;;;4939658;29;20043;-67
2022/07/27 12:06:35;;;;;;;1.45;0.60;;;23.60;45.70;;;;;;4938012;29;20078;-68
2022/07/27 12:09:03;;;;;;;2.22;0.73;;;23.60;44.20;;;;;;4940707;29;20066;-68
2022/07/27 12:11:44;;;;;;;3.83;0.75;;;23.70;43.40;;;;;;4939597;28;20114;-68
2022/07/27 12:14:14;;;;;;;4.03;0.60;;;23.70;44.00;;;;;;4939636;29;20118;-67
2022/07/27 12:16:40;;;;;;;2.85;0.65;;;23.70;43.90;;;;;;4942036;28;20114;-68
2022/07/27 12:19:06;;;;;;;4.50;0.70;;;23.80;44.40;;;;;;4942004;28;20031;-67
2022/07/27 12:21:32;;;;;;;1.70;0.63;;;23.80;43.50;;;;;;4948220;28;20045;-68
2022/07/27 12:23:58;;;;;;;2.15;0.50;;;23.80;44.10;;;;;;4947596;28;20026;-68
2022/07/27 12:26:24;;;;;;;4.82;0.60;;;23.80;44.00;;;;;;4945345;28;20399;-67
2022/07/27 12:29:06;;;;;;;2.70;0.80;;;23.80;44.00;;;;;;4943193;28;20125;-68
2022/07/27 12:31:33;;;;;;;3.70;0.70;;;23.80;43.90;;;;;;4941200;28;20497;-67
2022/07/27 12:34:00;;;;;;;6.50;0.77;;;23.70;44.40;;;;;;4943817;28;20046;-68
2022/07/27 12:36:26;;;;;;;3.63;0.90;;;23.60;44.00;;;;;;4944390;28;20035;-68
2022/07/27 12:38:52;;;;;;;3.08;0.90;;;23.50;44.30;;;;;;4942453;28;20034;-68
2022/07/27 12:41:36;;;;;;;2.72;0.80;;;23.50;44.90;;;;;;4945158;28;20031;-67
2022/07/27 12:44:07;;;;;;;3.08;0.80;;;23.50;43.90;;;;;;4944717;28;20077;-68
2022/07/27 12:46:50;;;;;;;6.75;0.73;;;23.50;44.00;;;;;;4941225;29;20024;-67
2022/07/27 12:49:16;;;;;;;5.43;1.10;;;23.70;44.40;;;;;;4938539;28;20039;-67
2022/07/27 12:51:41;;;;;;;3.92;0.80;;;23.80;43.80;;;;;;4939052;28;20791;-67
2022/07/27 12:54:07;;;;;;;4.50;0.68;;;23.70;43.10;;;;;;4935834;28;20062;-67
2022/07/27 12:56:33;;;;;;;1.70;0.70;;;23.70;42.40;;;;;;4937526;28;20035;-68